createdAt,value
2023-10-14T00:02:09.826Z,8.00
2023-10-14T00:05:14.045Z,7.20
2023-10-14T00:08:17.195Z,8.40
2023-10-14T00:11:22.736Z,6.00
2023-10-14T00:14:27.117Z,8.00
2023-10-14T00:17:36.278Z,9.00
2023-10-14T00:20:39.440Z,7.00
2023-10-14T00:23:42.580Z,7.80
2023-10-14T00:26:49.553Z,7.00
2023-10-14T00:30:07.006Z,5.75
2023-10-14T00:33:13.299Z,7.00
2023-10-14T00:36:17.722Z,9.75
2023-10-14T00:39:28.267Z,5.60
2023-10-14T00:42:32.829Z,5.00
2023-10-14T00:45:44.452Z,7.00
2023-10-14T00:48:48.952Z,7.20
2023-10-14T00:51:59.028Z,5.50
2023-10-14T00:55:14.071Z,4.00
2023-10-14T00:58:24.458Z,4.25
2023-10-14T01:01:33.462Z,6.00
2023-10-14T01:04:36.739Z,8.00
2023-10-14T01:07:40.627Z,6.00
2023-10-14T01:10:44.077Z,9.20
2023-10-14T01:13:48.818Z,7.50
2023-10-14T01:16:52.696Z,8.80
2023-10-14T01:19:56.833Z,10.60
2023-10-14T01:23:08.008Z,9.00
2023-10-14T01:26:11.662Z,7.20
2023-10-14T01:29:16.257Z,11.00
2023-10-14T01:32:44.023Z,9.40
2023-10-14T01:35:53.000Z,10.40
2023-10-14T01:39:00.413Z,13.40
2023-10-14T01:42:09.462Z,7.00
2023-10-14T01:45:12.550Z,7.00
2023-10-14T01:48:22.526Z,8.00
2023-10-14T01:51:26.541Z,6.00
2023-10-14T01:54:33.028Z,6.75
2023-10-14T01:57:37.531Z,7.00
2023-10-14T02:00:40.799Z,8.20
2023-10-14T02:03:47.744Z,6.00
2023-10-14T02:07:04.343Z,7.00
2023-10-14T02:10:13.841Z,7.40
2023-10-14T02:13:17.655Z,8.00
2023-10-14T02:16:25.742Z,7.25
2023-10-14T02:19:38.933Z,8.00
2023-10-14T02:22:42.225Z,5.00
2023-10-14T02:25:46.876Z,6.00
2023-10-14T02:28:50.094Z,6.00
2023-10-14T02:31:54.736Z,7.80
2023-10-14T02:34:57.821Z,6.00
2023-10-14T02:38:01.853Z,4.00
2023-10-14T02:41:06.264Z,6.00
2023-10-14T02:44:28.990Z,5.00
2023-10-14T02:47:38.643Z,5.60
2023-10-14T02:50:51.973Z,7.00
2023-10-14T02:53:56.892Z,6.60
2023-10-14T02:57:13.988Z,5.50
2023-10-14T03:00:22.058Z,11.00
2023-10-14T03:03:25.304Z,8.00
2023-10-14T03:06:31.783Z,6.00
2023-10-14T03:09:35.564Z,6.25
2023-10-14T03:12:41.149Z,7.40
2023-10-14T03:15:46.187Z,7.00
2023-10-14T03:18:49.608Z,7.50
2023-10-14T03:21:59.942Z,5.60
2023-10-14T03:25:08.691Z,7.00
2023-10-14T03:28:16.265Z,7.00
2023-10-14T03:31:24.509Z,4.00
2023-10-14T03:34:31.450Z,4.00
2023-10-14T03:37:37.630Z,8.00
2023-10-14T03:40:56.072Z,7.40
2023-10-14T03:44:06.789Z,8.75
2023-10-14T03:47:16.204Z,4.67
2023-10-14T03:50:25.088Z,7.40
2023-10-14T03:53:28.164Z,7.00
2023-10-14T03:56:32.859Z,7.00
2023-10-14T03:59:38.005Z,8.50
2023-10-14T04:02:42.865Z,10.00
2023-10-14T04:05:53.435Z,6.00
2023-10-14T04:08:56.534Z,10.20
2023-10-14T04:12:02.017Z,8.00
2023-10-14T04:15:25.234Z,8.40
2023-10-14T04:18:28.660Z,8.40
2023-10-14T04:21:38.486Z,8.00
2023-10-14T04:24:47.558Z,10.00
2023-10-14T04:28:19.227Z,12.00
2023-10-14T04:31:39.427Z,13.25
2023-10-14T04:34:45.465Z,9.40
2023-10-14T04:37:54.203Z,8.40
2023-10-14T04:40:59.552Z,9.40
2023-10-14T04:44:05.304Z,9.00
2023-10-14T04:47:19.580Z,8.75
2023-10-14T04:50:24.325Z,9.00
2023-10-14T04:53:28.215Z,10.75
2023-10-14T04:56:32.077Z,9.40
2023-10-14T04:59:38.017Z,10.00
2023-10-14T05:02:42.456Z,10.00
2023-10-14T05:05:50.150Z,11.40
2023-10-14T05:08:56.114Z,14.00
2023-10-14T05:11:59.302Z,13.00
2023-10-14T05:15:12.824Z,9.00
2023-10-14T05:18:18.146Z,10.00
2023-10-14T05:21:36.647Z,10.00
2023-10-14T05:24:40.922Z,8.50
2023-10-14T05:27:56.278Z,9.00
2023-10-14T05:31:01.894Z,9.00
2023-10-14T05:34:06.772Z,8.80
2023-10-14T05:37:12.528Z,8.00
2023-10-14T05:40:16.956Z,10.25
2023-10-14T05:43:23.140Z,11.00
2023-10-14T05:46:26.374Z,10.80
2023-10-14T05:49:30.902Z,11.00
2023-10-14T05:52:34.508Z,11.00
2023-10-14T05:55:40.963Z,8.00
2023-10-14T05:58:46.324Z,10.00
2023-10-14T06:01:50.155Z,10.50
2023-10-14T06:04:54.634Z,11.00
2023-10-14T06:08:06.925Z,10.00
2023-10-14T06:11:11.409Z,9.00
2023-10-14T06:14:14.463Z,9.20
2023-10-14T06:17:17.565Z,7.20
2023-10-14T06:20:22.192Z,9.00
2023-10-14T06:23:27.982Z,10.60
2023-10-14T06:26:31.144Z,29.60
2023-10-14T06:29:34.187Z,21.00
2023-10-14T06:32:37.276Z,12.00
2023-10-14T06:35:44.929Z,8.00
2023-10-14T06:38:48.173Z,11.00
2023-10-14T06:41:51.336Z,8.50
2023-10-14T06:44:56.048Z,11.00
2023-10-14T06:47:59.262Z,9.00
2023-10-14T06:51:03.912Z,10.00
2023-10-14T06:54:11.099Z,7.60
2023-10-14T06:57:15.471Z,6.00
2023-10-14T07:00:26.799Z,8.00
2023-10-14T07:03:31.052Z,5.40
2023-10-14T07:06:35.620Z,6.00
2023-10-14T07:09:39.189Z,7.60
2023-10-14T07:12:42.609Z,6.00
2023-10-14T07:15:46.399Z,7.00
2023-10-14T07:18:49.612Z,6.00
2023-10-14T07:21:54.326Z,7.00
2023-10-14T07:24:57.502Z,6.75
2023-10-14T07:28:01.305Z,6.00
2023-10-14T07:31:04.715Z,7.00
2023-10-14T07:34:10.452Z,6.00
2023-10-14T07:37:15.391Z,7.00
2023-10-14T07:40:26.058Z,6.40
2023-10-14T07:43:29.712Z,7.00
2023-10-14T07:46:32.880Z,6.00
2023-10-14T07:49:36.568Z,7.00
2023-10-14T07:52:41.018Z,8.00
2023-10-14T07:55:46.053Z,8.40
2023-10-14T07:58:49.241Z,7.00
2023-10-14T08:01:52.509Z,6.40
2023-10-14T08:04:55.773Z,6.00
2023-10-14T08:08:06.979Z,5.75
2023-10-14T08:11:13.304Z,7.00
2023-10-14T08:14:16.579Z,5.00
2023-10-14T08:17:20.388Z,5.00
2023-10-14T08:20:23.549Z,6.00
2023-10-14T08:23:29.428Z,7.00
2023-10-14T08:26:32.554Z,6.00
2023-10-14T08:29:35.622Z,6.25
2023-10-14T08:32:40.370Z,6.00
2023-10-14T08:35:44.257Z,6.00
2023-10-14T08:38:49.034Z,6.00
2023-10-14T08:41:57.464Z,5.00
2023-10-14T08:45:02.522Z,7.00
2023-10-14T08:48:07.105Z,4.40
2023-10-14T08:51:12.818Z,5.00
2023-10-14T08:54:20.238Z,8.20
2023-10-14T08:57:24.499Z,5.00
2023-10-14T09:00:27.563Z,5.00
2023-10-14T09:03:32.203Z,6.00
2023-10-14T09:06:35.522Z,7.40
2023-10-14T09:09:40.118Z,5.00
2023-10-14T09:12:55.106Z,7.00
2023-10-14T09:15:58.761Z,8.00
2023-10-14T09:19:03.470Z,6.00
2023-10-14T09:22:09.692Z,7.40
2023-10-14T09:25:15.382Z,6.00
2023-10-14T09:28:21.349Z,6.00
2023-10-14T09:31:30.427Z,6.00
2023-10-14T09:34:33.673Z,8.00
2023-10-14T09:37:39.303Z,7.00
2023-10-14T09:40:45.079Z,6.50
2023-10-14T09:43:51.959Z,7.75
2023-10-14T09:46:56.311Z,6.00
2023-10-14T09:50:00.044Z,9.00
2023-10-14T09:53:04.695Z,7.00
2023-10-14T09:56:10.311Z,7.00
2023-10-14T09:59:15.557Z,9.00
2023-10-14T10:02:21.010Z,7.00
2023-10-14T10:05:29.898Z,7.00
2023-10-14T10:08:56.398Z,9.00
2023-10-14T10:12:02.335Z,8.60
2023-10-14T10:15:08.327Z,8.40
2023-10-14T10:18:14.286Z,8.00
2023-10-14T10:21:19.558Z,9.00
2023-10-14T10:24:26.371Z,8.00
2023-10-14T10:27:31.299Z,8.00
2023-10-14T10:30:48.340Z,7.00
2023-10-14T10:33:59.948Z,7.00
2023-10-14T10:37:05.260Z,8.00
2023-10-14T10:40:12.278Z,9.40
2023-10-14T10:43:19.051Z,8.00
2023-10-14T10:46:42.299Z,8.00
2023-10-14T10:49:55.329Z,8.00
2023-10-14T10:53:33.420Z,8.25
2023-10-14T10:56:36.832Z,8.40
2023-10-14T10:59:42.047Z,8.00
2023-10-14T11:02:45.449Z,8.50
2023-10-14T11:05:50.043Z,8.00
2023-10-14T11:08:54.150Z,8.00
2023-10-14T11:12:02.000Z,7.20
2023-10-14T11:15:19.509Z,7.00
2023-10-14T11:18:37.916Z,9.00
2023-10-14T11:21:42.860Z,9.00
2023-10-14T11:24:46.113Z,8.00
2023-10-14T11:27:49.576Z,8.00
2023-10-14T11:30:56.814Z,7.00
2023-10-14T11:34:02.860Z,8.00
2023-10-14T11:37:10.468Z,11.00
2023-10-14T11:40:15.201Z,8.75
2023-10-14T11:43:22.605Z,9.50
2023-10-14T11:46:29.452Z,7.80
2023-10-14T11:49:33.824Z,8.50
2023-10-14T11:52:38.364Z,8.20
2023-10-14T11:55:41.637Z,8.00
2023-10-14T11:58:46.511Z,8.75
2023-10-14T12:01:50.961Z,10.00
2023-10-14T12:04:55.424Z,11.00
2023-10-14T12:07:58.747Z,9.00
2023-10-14T12:11:04.980Z,9.00
2023-10-14T12:14:08.749Z,12.00
2023-10-14T12:17:13.894Z,11.40
2023-10-14T12:20:17.019Z,11.60
2023-10-14T12:23:21.676Z,10.00
2023-10-14T12:26:38.165Z,12.00
2023-10-14T12:29:42.791Z,12.00
2023-10-14T12:32:48.063Z,10.80
2023-10-14T12:35:52.562Z,12.00
2023-10-14T12:38:55.641Z,11.40
2023-10-14T12:42:04.687Z,14.40
2023-10-14T12:45:14.085Z,11.40
2023-10-14T12:48:18.754Z,9.80
2023-10-14T12:51:26.819Z,13.00
2023-10-14T12:54:35.876Z,12.00
2023-10-14T12:57:39.165Z,10.50
2023-10-14T13:00:44.131Z,11.40
2023-10-14T13:03:53.465Z,9.75
2023-10-14T13:06:59.230Z,10.00
2023-10-14T13:10:06.917Z,10.20
2023-10-14T13:13:10.086Z,8.40
2023-10-14T13:16:13.320Z,8.75
2023-10-14T13:19:19.673Z,11.75
2023-10-14T13:22:25.225Z,10.00
2023-10-14T13:25:28.543Z,11.50
2023-10-14T13:28:33.818Z,10.00
2023-10-14T13:31:41.052Z,12.50
2023-10-14T13:34:46.664Z,8.00
2023-10-14T13:37:50.842Z,9.00
2023-10-14T13:40:54.417Z,10.75
2023-10-14T13:43:57.518Z,10.00
2023-10-14T13:47:05.652Z,8.60
2023-10-14T13:50:13.215Z,10.20
2023-10-14T13:53:19.606Z,10.60
2023-10-14T13:56:22.724Z,10.20
2023-10-14T13:59:25.945Z,11.20
2023-10-14T14:02:34.022Z,13.00
2023-10-14T14:05:39.704Z,11.00
2023-10-14T14:08:42.891Z,11.00
2023-10-14T14:11:45.916Z,11.60
2023-10-14T14:14:48.994Z,12.00
2023-10-14T14:17:52.043Z,13.00
2023-10-14T14:20:56.501Z,10.25
2023-10-14T14:23:59.546Z,11.33
2023-10-14T14:27:03.283Z,11.00
2023-10-14T14:30:09.101Z,12.00
2023-10-14T14:33:12.227Z,14.75
2023-10-14T14:36:17.010Z,12.50
2023-10-14T14:39:20.625Z,13.40
2023-10-14T14:42:23.671Z,13.60
2023-10-14T14:45:28.905Z,11.00
2023-10-14T14:48:31.945Z,12.00
2023-10-14T14:51:36.878Z,14.60
2023-10-14T14:54:42.596Z,11.60
2023-10-14T14:57:48.068Z,10.00
2023-10-14T15:00:53.242Z,14.00
2023-10-14T15:03:56.445Z,11.00
2023-10-14T15:07:01.643Z,13.40
2023-10-14T15:10:06.166Z,18.40
2023-10-14T15:13:09.343Z,14.25
2023-10-14T15:16:12.742Z,11.80
2023-10-14T15:19:17.896Z,12.60
2023-10-14T15:22:22.921Z,15.00
2023-10-14T15:25:26.078Z,8.20
2023-10-14T15:28:29.687Z,8.00
2023-10-14T15:31:34.410Z,10.00
2023-10-14T15:34:38.669Z,10.00
2023-10-14T15:37:48.857Z,10.00
2023-10-14T15:40:53.730Z,8.40
2023-10-14T15:43:56.770Z,9.60
2023-10-14T15:47:01.006Z,7.00
2023-10-14T15:50:06.307Z,7.00
2023-10-14T15:53:10.814Z,8.00
2023-10-14T15:56:16.723Z,8.50
2023-10-14T15:59:19.759Z,9.20
2023-10-14T16:02:22.937Z,7.25
2023-10-14T16:05:27.593Z,8.25
2023-10-14T16:08:33.377Z,8.40
2023-10-14T16:11:37.748Z,8.75
2023-10-14T16:14:40.802Z,8.00
2023-10-14T16:17:45.595Z,9.50
2023-10-14T16:20:51.018Z,10.25
2023-10-14T16:23:55.544Z,11.00
2023-10-14T16:26:58.602Z,10.75
2023-10-14T16:30:01.702Z,10.00
2023-10-14T16:33:05.935Z,10.75
2023-10-14T16:36:09.158Z,12.00
2023-10-14T16:39:13.640Z,13.00
2023-10-14T16:42:16.718Z,12.60
2023-10-14T16:45:21.018Z,12.60
2023-10-14T16:48:24.049Z,11.25
2023-10-14T16:51:27.155Z,12.00
2023-10-14T16:54:31.950Z,10.00
2023-10-14T16:57:35.392Z,10.80
2023-10-14T17:00:39.585Z,13.00
2023-10-14T17:03:45.070Z,11.40
2023-10-14T17:06:48.209Z,13.00
2023-10-14T17:09:54.991Z,13.00
2023-10-14T17:12:59.922Z,13.00
2023-10-14T17:16:04.585Z,15.00
2023-10-14T17:19:08.508Z,12.00
2023-10-14T17:22:11.650Z,13.00
2023-10-14T17:25:16.121Z,13.40
2023-10-14T17:28:20.196Z,12.00
2023-10-14T17:31:23.336Z,12.50
2023-10-14T17:34:26.563Z,10.80
2023-10-14T17:37:29.715Z,11.80
2023-10-14T17:40:39.761Z,7.00
2023-10-14T17:43:44.415Z,10.00
2023-10-14T17:46:47.590Z,8.80
2023-10-14T17:49:52.480Z,6.00
2023-10-14T17:52:57.123Z,8.00
2023-10-14T17:56:08.379Z,7.00
2023-10-14T17:59:11.432Z,8.00
2023-10-14T18:02:16.630Z,5.40
2023-10-14T18:05:20.130Z,5.60
2023-10-14T18:08:24.463Z,7.00
2023-10-14T18:11:30.134Z,4.00
2023-10-14T18:14:33.245Z,4.00
2023-10-14T18:17:36.394Z,6.00
2023-10-14T18:20:39.836Z,4.00
2023-10-14T18:23:42.874Z,4.60
2023-10-14T18:26:48.251Z,5.00
2023-10-14T18:29:51.611Z,6.00
2023-10-14T18:32:57.342Z,4.00
2023-10-14T18:36:09.101Z,4.80
2023-10-14T18:39:12.411Z,8.00
2023-10-14T18:42:16.781Z,5.00
2023-10-14T18:45:21.629Z,4.00
2023-10-14T18:48:25.854Z,3.00
2023-10-14T18:51:30.960Z,3.00
2023-10-14T18:54:34.084Z,4.00
2023-10-14T18:57:38.515Z,3.60
2023-10-14T19:00:44.586Z,6.00
2023-10-14T19:03:48.513Z,3.00
2023-10-14T19:06:52.688Z,4.80
2023-10-14T19:09:57.477Z,5.00
2023-10-14T19:13:02.536Z,4.40
2023-10-14T19:16:05.899Z,4.00
2023-10-14T19:19:09.250Z,6.00
2023-10-14T19:22:13.251Z,5.00
2023-10-14T19:25:18.848Z,6.60
2023-10-14T19:28:25.131Z,4.00
2023-10-14T19:31:28.456Z,5.00
2023-10-14T19:34:31.678Z,5.00
2023-10-14T19:37:34.895Z,5.60
2023-10-14T19:40:39.776Z,5.00
2023-10-14T19:43:44.599Z,6.00
2023-10-14T19:46:48.459Z,5.40
2023-10-14T19:49:52.870Z,6.00
2023-10-14T19:52:56.877Z,6.25
2023-10-14T19:55:59.944Z,7.60
2023-10-14T19:59:04.564Z,7.00
2023-10-14T20:02:07.722Z,5.20
2023-10-14T20:05:13.337Z,5.40
2023-10-14T20:08:20.877Z,5.00
2023-10-14T20:11:24.138Z,5.00
2023-10-14T20:14:28.583Z,6.75
2023-10-14T20:17:32.947Z,6.60
2023-10-14T20:20:37.277Z,5.00
2023-10-14T20:23:43.757Z,5.60
2023-10-14T20:26:47.892Z,5.00
2023-10-14T20:29:52.312Z,4.00
2023-10-14T20:32:57.080Z,4.00
2023-10-14T20:36:01.974Z,3.00
2023-10-14T20:39:05.593Z,5.00
2023-10-14T20:42:08.652Z,5.00
2023-10-14T20:45:16.832Z,3.80
2023-10-14T20:48:19.881Z,5.75
2023-10-14T20:51:22.943Z,4.00
2023-10-14T20:54:27.042Z,4.00
2023-10-14T20:57:31.460Z,5.40
2023-10-14T21:00:37.900Z,6.25
2023-10-14T21:03:41.251Z,9.40
2023-10-14T21:06:44.404Z,5.25
2023-10-14T21:09:47.538Z,4.00
2023-10-14T21:12:51.167Z,3.20
2023-10-14T21:16:00.938Z,4.00
2023-10-14T21:19:04.794Z,3.00
2023-10-14T21:22:07.885Z,5.00
2023-10-14T21:25:11.433Z,7.00
2023-10-14T21:28:15.601Z,4.00
2023-10-14T21:31:21.762Z,4.00
2023-10-14T21:34:25.755Z,5.00
2023-10-14T21:37:30.506Z,3.00
2023-10-14T21:40:33.988Z,4.60
2023-10-14T21:43:37.389Z,4.20
2023-10-14T21:46:41.891Z,3.20
2023-10-14T21:49:45.022Z,3.00
2023-10-14T21:52:49.172Z,4.00
2023-10-14T21:55:55.542Z,7.00
2023-10-14T21:59:02.287Z,4.75
2023-10-14T22:02:09.453Z,3.60
2023-10-14T22:05:15.412Z,3.00
2023-10-14T22:08:19.671Z,4.00
2023-10-14T22:11:25.379Z,5.00
2023-10-14T22:14:28.451Z,6.00
2023-10-14T22:17:32.909Z,4.80
2023-10-14T22:20:40.943Z,6.00
2023-10-14T22:23:44.968Z,4.00
2023-10-14T22:26:49.078Z,3.00
2023-10-14T22:29:52.146Z,3.00
2023-10-14T22:32:57.406Z,4.00
2023-10-14T22:36:01.846Z,4.00
2023-10-14T22:39:06.641Z,5.00
2023-10-14T22:42:09.848Z,3.20
2023-10-14T22:45:14.442Z,3.00
2023-10-14T22:48:18.866Z,5.00
2023-10-14T22:51:23.331Z,5.00
2023-10-14T22:54:26.490Z,2.20
2023-10-14T22:57:29.565Z,4.00
2023-10-14T23:00:33.012Z,2.60
2023-10-14T23:03:37.444Z,4.00
2023-10-14T23:06:40.571Z,4.00
2023-10-14T23:09:43.623Z,4.00
2023-10-14T23:12:46.683Z,3.00
2023-10-14T23:15:52.828Z,3.60
2023-10-14T23:18:57.493Z,4.00
2023-10-14T23:22:00.844Z,4.60
2023-10-14T23:25:04.631Z,5.00
2023-10-14T23:28:08.221Z,3.00
2023-10-14T23:31:12.266Z,2.00
2023-10-14T23:34:16.806Z,2.00
2023-10-14T23:37:23.128Z,4.00
2023-10-14T23:40:30.835Z,3.40
2023-10-14T23:43:34.296Z,5.75
2023-10-14T23:46:37.445Z,6.00
2023-10-14T23:49:43.047Z,5.20
2023-10-14T23:55:55.492Z,5.75
2023-10-14T23:58:59.215Z,4.00
